Time;durP1;ratioP1;P1;durP2;ratioP2;P2;SDS_P1;SDS_P2;PMS_P1;PMS_P2;Temp;Humidity;BMP_temperature;BMP_pressure;BME280_temperature;BME280_humidity;BME280_pressure;Samples;Min_cycle;Max_cycle;Signal;HPM_P1;HPM_P2
2023/09/09 00:02:06;;;;;;;;;;;;;;;16.54;82.58;95539.91;5137147;27;1118;-57
2023/09/09 00:04:32;;;;;;;;;;;;;;;16.58;82.94;95535.78;5137063;27;1027;-57
2023/09/09 00:07:02;;;;;;;;;;;;;;;16.74;81.69;95536.59;5118794;27;992;-57
2023/09/09 00:09:29;;;;;;;;;;;;;;;16.87;81.26;95538.66;5137011;27;921;-57
2023/09/09 00:11:55;;;;;;;;;;;;;;;16.81;81.64;95542.91;5137018;27;1028;-57
2023/09/09 00:14:21;;;;;;;;;;;;;;;16.71;81.87;95539.66;5136750;27;1917;-57
2023/09/09 00:16:47;;;;;;;;;;;;;;;16.82;81.16;95533.81;5137219;27;977;-57
2023/09/09 00:19:13;;;;;;;;;;;;;;;16.92;80.46;95538.91;5136844;27;1004;-57
2023/09/09 00:21:39;;;;;;;;;;;;;;;16.67;81.11;95530.28;5137065;27;1024;-57
2023/09/09 00:24:05;;;;;;;;;;;;;;;16.46;82.23;95534.59;5136946;27;1036;-57
2023/09/09 00:26:31;;;;;;;;;;;;;;;16.49;82.40;95525.31;5136661;27;1044;-57
2023/09/09 00:28:57;;;;;;;;;;;;;;;16.44;82.90;95525.03;5136828;27;1010;-57
2023/09/09 00:31:23;;;;;;;;;;;;;;;16.37;82.95;95525.78;5136693;27;1043;-57
2023/09/09 00:33:49;;;;;;;;;;;;;;;16.35;82.79;95522.44;5136548;27;1048;-57
2023/09/09 00:36:15;;;;;;;;;;;;;;;16.16;83.21;95526.53;5136608;27;2036;-57
2023/09/09 00:38:41;;;;;;;;;;;;;;;16.14;83.10;95528.59;5136720;27;965;-57
2023/09/09 00:41:10;;;;;;;;;;;;;;;16.39;81.71;95521.03;5136722;27;961;-56
2023/09/09 00:43:39;;;;;;;;;;;;;;;16.30;82.44;95524.03;5136410;27;1040;-57
2023/09/09 00:46:08;;;;;;;;;;;;;;;16.13;83.10;95523.38;5136637;27;1036;-57
2023/09/09 00:48:35;;;;;;;;;;;;;;;16.12;83.38;95529.78;5136291;27;1281;-57
2023/09/09 00:51:02;;;;;;;;;;;;;;;16.24;83.30;95519.34;5135065;27;1084;-58
2023/09/09 00:53:29;;;;;;;;;;;;;;;16.27;83.00;95519.81;5115890;28;961;-57
2023/09/09 00:55:56;;;;;;;;;;;;;;;16.24;83.30;95516.66;5115489;28;1901;-57
2023/09/09 00:58:23;;;;;;;;;;;;;;;16.16;83.66;95518.44;5108774;28;1292;-57
2023/09/09 01:00:49;;;;;;;;;;;;;;;16.47;82.03;95513.88;5095040;28;1117;-57
2023/09/09 01:03:14;;;;;;;;;;;;;;;16.29;82.95;95514.25;5094895;28;1069;-57
2023/09/09 01:05:41;;;;;;;;;;;;;;;16.12;83.80;95509.03;5094900;28;1020;-57
2023/09/09 01:08:08;;;;;;;;;;;;;;;16.26;82.96;95509.22;5094876;28;1037;-57
2023/09/09 01:10:34;;;;;;;;;;;;;;;16.22;83.37;95513.31;5094821;28;1032;-57
2023/09/09 01:13:00;;;;;;;;;;;;;;;16.00;84.33;95519.47;5094859;28;906;-56
2023/09/09 01:15:26;;;;;;;;;;;;;;;15.84;85.05;95516.97;5094806;28;1906;-57
2023/09/09 01:17:52;;;;;;;;;;;;;;;15.96;85.17;95514.63;5094804;28;921;-58
2023/09/09 01:20:19;;;;;;;;;;;;;;;15.97;84.47;95511.75;5094849;28;1076;-57
2023/09/09 01:22:48;;;;;;;;;;;;;;;16.13;83.88;95499.94;5094956;28;1019;-58
2023/09/09 01:25:14;;;;;;;;;;;;;;;15.99;84.21;95508.84;5076833;28;1061;-57
2023/09/09 01:27:41;;;;;;;;;;;;;;;16.04;83.93;95509.13;5094558;28;1036;-58
2023/09/09 01:30:08;;;;;;;;;;;;;;;15.95;84.75;95502.16;5094600;28;1061;-57
2023/09/09 01:32:34;;;;;;;;;;;;;;;15.99;84.42;95506.16;5094689;28;924;-58
2023/09/09 01:35:04;;;;;;;;;;;;;;;15.90;85.12;95512.69;5093745;28;1902;-57
2023/09/09 01:37:30;;;;;;;;;;;;;;;15.86;85.68;95508.66;5094579;28;1041;-57
2023/09/09 01:39:56;;;;;;;;;;;;;;;15.62;87.08;95510.56;5094320;28;1016;-57
2023/09/09 01:42:22;;;;;;;;;;;;;;;15.59;87.40;95510.94;5094223;28;1088;-58
2023/09/09 01:44:48;;;;;;;;;;;;;;;15.63;87.67;95509.53;5094364;28;973;-58
2023/09/09 01:47:14;;;;;;;;;;;;;;;15.61;87.61;95511.56;5094622;28;1095;-58
2023/09/09 01:49:41;;;;;;;;;;;;;;;15.78;86.43;95509.59;5094099;28;1052;-58
2023/09/09 01:52:08;;;;;;;;;;;;;;;15.61;87.05;95498.97;5104199;28;1230;-58
2023/09/09 01:54:34;;;;;;;;;;;;;;;15.83;86.09;95511.75;5114263;28;1985;-58
2023/09/09 01:57:00;;;;;;;;;;;;;;;15.98;85.78;95508.03;5114383;28;1095;-58
2023/09/09 01:59:26;;;;;;;;;;;;;;;15.69;85.35;95521.44;5130457;27;1319;-58
2023/09/09 02:01:52;;;;;;;;;;;;;;;15.50;85.97;95520.97;5134916;27;973;-57
2023/09/09 02:04:18;;;;;;;;;;;;;;;15.70;85.66;95515.03;5134688;27;1028;-57
2023/09/09 02:06:46;;;;;;;;;;;;;;;15.78;85.60;95520.38;5134792;27;1106;-57
2023/09/09 02:09:12;;;;;;;;;;;;;;;15.71;86.03;95520.25;5134876;27;973;-57
2023/09/09 02:11:38;;;;;;;;;;;;;;;15.71;86.35;95528.34;5135035;27;1060;-57
2023/09/09 02:14:04;;;;;;;;;;;;;;;15.28;87.69;95525.34;5134770;27;986;-57
2023/09/09 02:16:31;;;;;;;;;;;;;;;15.16;88.42;95535.72;5134739;27;1976;-57
2023/09/09 02:18:58;;;;;;;;;;;;;;;15.45;87.24;95531.44;5134898;27;1044;-57
2023/09/09 02:21:24;;;;;;;;;;;;;;;15.47;87.66;95536.66;5134832;27;992;-57
2023/09/09 02:23:50;;;;;;;;;;;;;;;15.27;86.62;95537.16;5134850;27;970;-57
2023/09/09 02:26:16;;;;;;;;;;;;;;;15.53;85.52;95530.53;5134721;27;1043;-56
2023/09/09 02:28:44;;;;;;;;;;;;;;;15.61;86.12;95538.53;5134474;27;1091;-57
2023/09/09 02:31:10;;;;;;;;;;;;;;;15.58;86.24;95536.22;5134366;27;1016;-57
2023/09/09 02:33:36;;;;;;;;;;;;;;;15.60;86.21;95537.69;5134404;27;1028;-57
2023/09/09 02:36:02;;;;;;;;;;;;;;;15.55;86.09;95523.94;5134550;27;1960;-57
2023/09/09 02:38:28;;;;;;;;;;;;;;;15.27;86.06;95526.38;5134298;27;1036;-57
2023/09/09 02:40:54;;;;;;;;;;;;;;;15.25;86.42;95517.63;5116091;28;1128;-57
2023/09/09 02:43:20;;;;;;;;;;;;;;;15.37;86.17;95521.56;5134364;28;1040;-57
2023/09/09 02:45:46;;;;;;;;;;;;;;;15.36;86.28;95519.88;5134277;27;1110;-57
2023/09/09 02:48:12;;;;;;;;;;;;;;;15.25;86.62;95517.63;5138447;27;1092;-57
2023/09/09 02:50:38;;;;;;;;;;;;;;;15.00;87.84;95520.50;5138545;27;1058;-57
2023/09/09 02:53:04;;;;;;;;;;;;;;;15.13;87.43;95511.84;5120193;27;1068;-57
2023/09/09 02:55:30;;;;;;;;;;;;;;;15.26;86.51;95516.63;5118077;28;1902;-57
2023/09/09 02:57:56;;;;;;;;;;;;;;;15.26;86.46;95518.47;5114983;28;1263;-60
2023/09/09 03:00:21;;;;;;;;;;;;;;;15.32;86.31;95499.72;5097637;28;973;-61
2023/09/09 03:02:49;;;;;;;;;;;;;;;15.41;86.24;95512.09;5097275;28;1032;-61
2023/09/09 03:05:15;;;;;;;;;;;;;;;15.35;86.31;95507.47;5097496;28;973;-61
2023/09/09 03:07:43;;;;;;;;;;;;;;;15.22;86.11;95510.75;5097501;28;1037;-61
2023/09/09 03:10:09;;;;;;;;;;;;;;;15.14;86.34;95508.13;5097536;28;1064;-60
2023/09/09 03:12:35;;;;;;;;;;;;;;;15.15;86.41;95509.78;5079198;28;1028;-61
2023/09/09 03:15:05;;;;;;;;;;;;;;;15.25;85.49;95514.94;5097003;28;1906;-60
2023/09/09 03:17:31;;;;;;;;;;;;;;;15.35;84.43;95506.63;5097525;28;1081;-60
2023/09/09 03:19:57;;;;;;;;;;;;;;;15.35;84.79;95512.00;5097351;28;1045;-59
2023/09/09 03:22:23;;;;;;;;;;;;;;;15.25;85.30;95514.09;5097218;28;1056;-59
2023/09/09 03:24:49;;;;;;;;;;;;;;;15.18;85.87;95519.41;5097244;28;957;-58
2023/09/09 03:27:15;;;;;;;;;;;;;;;15.00;85.69;95519.69;5096901;28;1056;-58
2023/09/09 03:29:41;;;;;;;;;;;;;;;15.06;85.30;95526.19;5097123;28;1198;-59
2023/09/09 03:32:07;;;;;;;;;;;;;;;15.02;85.43;95521.19;5097053;28;1037;-59
2023/09/09 03:34:33;;;;;;;;;;;;;;;14.94;85.86;95520.41;5078812;28;1996;-59
2023/09/09 03:36:59;;;;;;;;;;;;;;;14.85;86.22;95516.91;5096902;28;1008;-58
2023/09/09 03:39:25;;;;;;;;;;;;;;;14.92;85.86;95507.13;5097170;28;1011;-57
2023/09/09 03:41:51;;;;;;;;;;;;;;;14.96;85.60;95515.69;5096677;28;1032;-58
2023/09/09 03:44:17;;;;;;;;;;;;;;;14.67;86.19;95517.22;5096822;28;1008;-58
2023/09/09 03:46:43;;;;;;;;;;;;;;;14.38;88.16;95509.75;5096738;28;938;-57
2023/09/09 03:49:09;;;;;;;;;;;;;;;14.47;88.10;95511.41;5096477;28;1069;-58
2023/09/09 03:51:35;;;;;;;;;;;;;;;14.58;87.31;95513.72;5101912;28;1096;-58
2023/09/09 03:54:01;;;;;;;;;;;;;;;14.53;87.29;95518.78;5098650;28;1036;-58
2023/09/09 03:56:26;;;;;;;;;;;;;;;14.52;87.67;95517.09;5116569;28;1909;-57
2023/09/09 03:58:52;;;;;;;;;;;;;;;14.51;88.18;95523.47;5127380;27;1244;-58
2023/09/09 04:01:18;;;;;;;;;;;;;;;14.63;87.35;95519.41;5137048;27;1031;-58
2023/09/09 04:03:44;;;;;;;;;;;;;;;14.57;87.74;95525.50;5137370;27;1048;-59
2023/09/09 04:06:11;;;;;;;;;;;;;;;14.64;87.22;95518.41;5137051;27;1035;-57
2023/09/09 04:08:39;;;;;;;;;;;;;;;14.70;86.80;95524.09;5137427;27;1067;-57
2023/09/09 04:11:05;;;;;;;;;;;;;;;14.61;87.19;95518.75;5137015;27;1031;-57
2023/09/09 04:13:31;;;;;;;;;;;;;;;14.34;88.43;95516.50;5136898;27;1248;-57
2023/09/09 04:15:58;;;;;;;;;;;;;;;14.42;88.00;95520.00;5136765;27;1905;-57
2023/09/09 04:18:25;;;;;;;;;;;;;;;14.75;86.61;95517.16;5136802;27;1102;-57
2023/09/09 04:20:51;;;;;;;;;;;;;;;14.60;87.98;95525.13;5137052;27;991;-57
2023/09/09 04:23:17;;;;;;;;;;;;;;;14.44;88.13;95517.16;5137043;27;977;-57
2023/09/09 04:25:44;;;;;;;;;;;;;;;14.53;88.59;95518.78;5137099;27;965;-57
2023/09/09 04:28:11;;;;;;;;;;;;;;;14.60;88.69;95521.63;5118410;27;1037;-58
2023/09/09 04:30:38;;;;;;;;;;;;;;;14.46;89.34;95520.50;5136945;27;1026;-59
2023/09/09 04:33:08;;;;;;;;;;;;;;;14.48;89.72;95525.72;5136827;27;951;-59
2023/09/09 04:35:34;;;;;;;;;;;;;;;15.08;87.23;95516.09;5136426;27;1905;-58
2023/09/09 04:38:00;;;;;;;;;;;;;;;15.45;85.08;95517.97;5136489;27;1067;-58
2023/09/09 04:40:26;;;;;;;;;;;;;;;15.31;85.18;95522.31;5136402;27;1121;-58
2023/09/09 04:42:52;;;;;;;;;;;;;;;15.24;85.73;95510.59;5136703;27;961;-58
2023/09/09 04:45:19;;;;;;;;;;;;;;;15.41;84.96;95508.59;5136501;27;1060;-58
2023/09/09 04:47:45;;;;;;;;;;;;;;;15.54;84.92;95514.19;5136543;27;1832;-58
2023/09/09 04:50:13;;;;;;;;;;;;;;;15.74;84.58;95509.13;5136541;27;977;-59
2023/09/09 04:52:39;;;;;;;;;;;;;;;15.79;85.07;95517.50;5121479;27;1183;-59
2023/09/09 04:55:04;;;;;;;;;;;;;;;15.78;84.00;95523.94;5115866;28;1991;-58
2023/09/09 04:57:30;;;;;;;;;;;;;;;15.97;84.06;95517.16;5115487;28;1032;-58
2023/09/09 04:59:56;;;;;;;;;;;;;;;16.25;84.00;95502.97;5095670;28;1276;-58
2023/09/09 05:02:22;;;;;;;;;;;;;;;16.37;83.91;95508.72;5095198;28;977;-58
2023/09/09 05:04:48;;;;;;;;;;;;;;;16.37;83.35;95516.81;5095260;28;1041;-56
2023/09/09 05:07:14;;;;;;;;;;;;;;;16.49;83.08;95507.25;5095178;28;1071;-58
2023/09/09 05:09:40;;;;;;;;;;;;;;;16.73;82.12;95510.63;5094090;28;1107;-58
2023/09/09 05:12:06;;;;;;;;;;;;;;;16.84;81.53;95507.44;5094828;28;1028;-58
2023/09/09 05:14:32;;;;;;;;;;;;;;;17.03;81.55;95510.56;5094615;28;1913;-58
2023/09/09 05:16:58;;;;;;;;;;;;;;;17.17;80.40;95518.59;5094960;28;969;-58
2023/09/09 05:19:24;;;;;;;;;;;;;;;17.22;80.22;95515.31;5094817;28;1027;-58
2023/09/09 05:21:50;;;;;;;;;;;;;;;17.50;78.79;95515.34;5094681;28;1032;-57
2023/09/09 05:24:16;;;;;;;;;;;;;;;17.75;77.94;95510.34;5094569;28;1119;-58
2023/09/09 05:26:42;;;;;;;;;;;;;;;17.84;78.01;95512.91;5094676;28;1013;-58
2023/09/09 05:29:08;;;;;;;;;;;;;;;18.00;77.44;95514.50;5094445;28;1056;-57
2023/09/09 05:31:34;;;;;;;;;;;;;;;18.24;76.68;95510.47;5094668;28;1007;-58
2023/09/09 05:34:00;;;;;;;;;;;;;;;18.50;76.03;95510.59;5094767;28;1004;-58
2023/09/09 05:36:27;;;;;;;;;;;;;;;18.73;75.59;95512.16;5094375;28;2020;-58
2023/09/09 05:38:59;;;;;;;;;;;;;;;18.96;75.04;95519.13;5094677;28;968;-58
2023/09/09 05:41:30;;;;;;;;;;;;;;;19.23;73.31;95511.88;5094206;28;1111;-59
2023/09/09 05:43:56;;;;;;;;;;;;;;;19.41;72.33;95511.28;5094248;28;956;-59
2023/09/09 05:46:22;;;;;;;;;;;;;;;19.63;71.78;95511.91;5094156;28;1061;-59
2023/09/09 05:48:48;;;;;;;;;;;;;;;19.77;72.02;95513.63;5094350;28;989;-59
2023/09/09 05:51:14;;;;;;;;;;;;;;;19.91;71.33;95519.03;5096530;28;1958;-59
2023/09/09 05:53:41;;;;;;;;;;;;;;;20.11;70.20;95519.00;5114559;28;962;-59
2023/09/09 05:56:07;;;;;;;;;;;;;;;20.37;68.96;95513.50;5096266;28;1988;-56
2023/09/09 05:58:35;;;;;;;;;;;;;;;20.45;68.93;95510.56;5123015;27;1436;-55
2023/09/09 06:01:02;;;;;;;;;;;;;;;20.61;67.83;95508.44;5134913;27;1156;-57
2023/09/09 06:03:29;;;;;;;;;;;;;;;20.80;68.27;95506.69;5134965;27;1040;-57
2023/09/09 06:05:55;;;;;;;;;;;;;;;20.98;68.95;95511.41;5135095;27;1047;-57
2023/09/09 06:08:21;;;;;;;;;;;;;;;21.21;67.67;95508.97;5134742;27;1027;-56
2023/09/09 06:10:47;;;;;;;;;;;;;;;21.38;65.91;95513.88;5134663;27;1110;-56
2023/09/09 06:13:13;;;;;;;;;;;;;;;21.57;67.69;95509.38;5134928;27;999;-57
2023/09/09 06:15:39;;;;;;;;;;;;;;;21.77;67.88;95510.03;5134798;27;1988;-57
2023/09/09 06:18:05;;;;;;;;;;;;;;;21.94;64.90;95523.91;5134782;27;956;-57
2023/09/09 06:20:30;;;;;;;;;;;;;;;21.99;65.33;95515.09;5134707;27;963;-57
2023/09/09 06:22:56;;;;;;;;;;;;;;;22.07;63.40;95520.25;5134896;27;973;-58
2023/09/09 06:25:22;;;;;;;;;;;;;;;22.15;65.01;95528.13;5134392;27;1055;-58
2023/09/09 06:27:48;;;;;;;;;;;;;;;22.42;63.29;95527.88;5134754;27;981;-57
2023/09/09 06:30:14;;;;;;;;;;;;;;;22.61;61.83;95526.00;5134645;27;1189;-58
2023/09/09 06:32:40;;;;;;;;;;;;;;;22.70;62.31;95515.63;5134639;27;1060;-58
2023/09/09 06:35:07;;;;;;;;;;;;;;;22.76;61.36;95515.53;5134358;27;1910;-58
2023/09/09 06:37:33;;;;;;;;;;;;;;;22.84;59.84;95527.19;5134390;27;1038;-57
2023/09/09 06:39:59;;;;;;;;;;;;;;;23.08;61.41;95529.00;5134570;27;1107;-58
2023/09/09 06:42:25;;;;;;;;;;;;;;;23.33;58.71;95522.56;5134583;27;987;-58
2023/09/09 06:44:51;;;;;;;;;;;;;;;23.43;60.03;95517.41;5134654;28;1044;-58
2023/09/09 06:47:16;;;;;;;;;;;;;;;23.53;59.76;95514.94;5134587;28;1040;-58
2023/09/09 06:49:42;;;;;;;;;;;;;;;23.67;57.20;95521.00;5134484;28;987;-58
2023/09/09 06:52:08;;;;;;;;;;;;;;;23.83;58.72;95513.22;5123900;28;1127;-57
2023/09/09 06:54:34;;;;;;;;;;;;;;;24.03;55.92;95527.38;5113792;28;1913;-57
2023/09/09 06:57:00;;;;;;;;;;;;;;;24.11;56.54;95513.38;5112685;28;2601;-57
2023/09/09 06:59:26;;;;;;;;;;;;;;;24.36;56.95;95513.13;5113715;28;1248;-57
2023/09/09 07:01:52;;;;;;;;;;;;;;;24.49;53.96;95517.53;5113767;28;1048;-57
2023/09/09 07:04:18;;;;;;;;;;;;;;;24.41;54.64;95504.19;5113452;28;1056;-57
2023/09/09 07:06:44;;;;;;;;;;;;;;;24.51;53.06;95514.53;5113566;28;1123;-57
2023/09/09 07:09:10;;;;;;;;;;;;;;;24.53;52.18;95518.72;5113733;28;1053;-57
2023/09/09 07:11:36;;;;;;;;;;;;;;;24.66;52.93;95519.53;5113719;28;1075;-57
2023/09/09 07:14:02;;;;;;;;;;;;;;;24.73;51.11;95523.78;5113793;28;1064;-57
2023/09/09 07:16:31;;;;;;;;;;;;;;;24.87;50.87;95523.53;5113460;28;1993;-57
2023/09/09 07:18:57;;;;;;;;;;;;;;;24.88;49.70;95526.00;5113715;28;1004;-57
2023/09/09 07:21:23;;;;;;;;;;;;;;;24.94;51.09;95524.22;5113465;28;999;-58
2023/09/09 07:23:49;;;;;;;;;;;;;;;25.00;47.93;95528.72;5113821;28;1186;-58
2023/09/09 07:26:15;;;;;;;;;;;;;;;24.84;46.97;95533.03;5113232;28;1095;-58
2023/09/09 07:28:41;;;;;;;;;;;;;;;25.01;46.04;95524.91;5113515;28;1015;-58
2023/09/09 07:31:07;;;;;;;;;;;;;;;25.13;45.76;95522.13;5113490;28;1040;-57
2023/09/09 07:33:33;;;;;;;;;;;;;;;25.20;45.73;95527.47;5116335;28;1045;-57
2023/09/09 07:35:59;;;;;;;;;;;;;;;25.33;44.19;95530.78;5117185;28;1902;-57
2023/09/09 07:38:25;;;;;;;;;;;;;;;25.54;46.35;95524.84;5117101;28;963;-57
2023/09/09 07:40:55;;;;;;;;;;;;;;;25.58;45.02;95521.38;5116925;28;1458;-57
2023/09/09 07:43:21;;;;;;;;;;;;;;;25.64;43.56;95528.59;5117229;28;1040;-57
2023/09/09 07:45:48;;;;;;;;;;;;;;;25.80;42.96;95529.69;5117171;28;958;-57
2023/09/09 07:48:14;;;;;;;;;;;;;;;26.00;42.17;95531.97;5116991;28;1012;-57
2023/09/09 07:50:40;;;;;;;;;;;;;;;26.11;42.68;95530.22;5116999;28;985;-56
2023/09/09 07:53:06;;;;;;;;;;;;;;;26.11;40.97;95530.22;5135109;27;1068;-57
2023/09/09 07:55:32;;;;;;;;;;;;;;;26.02;40.09;95531.72;5137469;27;1917;-57
2023/09/09 07:57:57;;;;;;;;;;;;;;;26.20;40.09;95531.47;5137497;27;1354;-57
2023/09/09 08:00:23;;;;;;;;;;;;;;;26.35;37.52;95541.00;5137416;27;1060;-57
2023/09/09 08:02:49;;;;;;;;;;;;;;;26.44;37.85;95542.22;5119102;27;961;-57
2023/09/09 08:05:15;;;;;;;;;;;;;;;26.49;38.14;95542.31;5137091;27;1976;-57
2023/09/09 08:07:41;;;;;;;;;;;;;;;26.53;40.61;95539.91;5137430;27;965;-57
2023/09/09 08:10:09;;;;;;;;;;;;;;;26.64;40.20;95531.59;5137310;27;1018;-56
2023/09/09 08:12:35;;;;;;;;;;;;;;;26.86;37.38;95548.06;5137276;27;1024;-57
2023/09/09 08:15:05;;;;;;;;;;;;;;;26.97;38.24;95549.00;5136895;27;1910;-56
2023/09/09 08:17:32;;;;;;;;;;;;;;;27.08;35.95;95549.97;5136986;27;961;-56
2023/09/09 08:19:57;;;;;;;;;;;;;;;27.03;35.85;95545.28;5136900;27;1052;-55
2023/09/09 08:22:23;;;;;;;;;;;;;;;27.06;37.04;95536.50;5137031;27;975;-54
2023/09/09 08:24:49;;;;;;;;;;;;;;;27.22;35.02;95536.69;5137055;27;1022;-55
2023/09/09 08:27:15;;;;;;;;;;;;;;;27.41;35.23;95535.31;5137005;27;1055;-58
2023/09/09 08:29:41;;;;;;;;;;;;;;;27.60;34.91;95538.53;5136902;27;1011;-56
2023/09/09 08:32:07;;;;;;;;;;;;;;;27.34;35.02;95531.09;5136604;27;917;-57
2023/09/09 08:34:33;;;;;;;;;;;;;;;27.47;35.71;95533.44;5136554;27;1043;-56
2023/09/09 08:36:59;;;;;;;;;;;;;;;27.55;35.52;95526.66;5136502;27;1975;-55
2023/09/09 08:39:25;;;;;;;;;;;;;;;27.54;35.84;95525.81;5136434;27;1042;-56
2023/09/09 08:41:57;;;;;;;;;;;;;;;27.59;36.41;95525.06;5136419;27;1059;-56
2023/09/09 08:44:32;;;;;;;;;;;;;;;27.48;35.32;95526.84;5135301;27;1032;-57
2023/09/09 08:46:59;;;;;;;;;;;;;;;27.32;35.96;95519.53;5136441;27;1041;-56
2023/09/09 08:49:27;;;;;;;;;;;;;;;27.35;37.06;95525.34;5136300;27;973;-56
2023/09/09 08:52:16;;;;;;;;;;;;;;;27.38;36.64;95519.34;5127900;27;1225;-57
2023/09/09 08:54:42;;;;;;;;;;;;;;;27.26;36.19;95511.25;5115972;28;1914;-56
2023/09/09 08:57:08;;;;;;;;;;;;;;;27.42;36.59;95520.47;5115926;28;967;-57
2023/09/09 08:59:37;;;;;;;;;;;;;;;27.45;35.10;95519.97;5098366;28;1311;-57
2023/09/09 09:02:03;;;;;;;;;;;;;;;27.53;35.59;95521.44;5095055;28;1096;-57
2023/09/09 09:04:29;;;;;;;;;;;;;;;27.65;34.89;95511.09;5094881;28;1099;-57
2023/09/09 09:06:55;;;;;;;;;;;;;;;27.85;35.42;95512.38;5095009;28;1068;-57
2023/09/09 09:09:21;;;;;;;;;;;;;;;27.84;33.59;95511.53;5095054;28;1023;-57
2023/09/09 09:11:47;;;;;;;;;;;;;;;27.74;34.83;95511.47;5095197;28;961;-57
2023/09/09 09:14:13;;;;;;;;;;;;;;;27.72;33.24;95510.91;5094889;28;1000;-57
2023/09/09 09:16:40;;;;;;;;;;;;;;;27.76;32.83;95519.44;5094773;28;1992;-57
2023/09/09 09:19:14;;;;;;;;;;;;;;;27.88;32.93;95511.03;5094726;28;1103;-58
2023/09/09 09:21:40;;;;;;;;;;;;;;;27.77;30.20;95515.59;5095059;28;1037;-58
2023/09/09 09:24:06;;;;;;;;;;;;;;;27.70;29.83;95518.56;5094985;28;1063;-58
2023/09/09 09:26:32;;;;;;;;;;;;;;;27.64;30.68;95531.41;5094831;28;913;-57
2023/09/09 09:29:04;;;;;;;;;;;;;;;27.73;28.56;95523.53;5094623;28;1047;-58
2023/09/09 09:31:30;;;;;;;;;;;;;;;27.78;29.78;95514.50;5094344;28;1099;-57
2023/09/09 09:33:57;;;;;;;;;;;;;;;27.87;31.02;95506.59;5094637;28;977;-57
2023/09/09 09:36:23;;;;;;;;;;;;;;;28.11;30.02;95505.19;5094238;28;2001;-57
2023/09/09 09:38:49;;;;;;;;;;;;;;;28.17;29.03;95508.81;5094373;28;1116;-57
2023/09/09 09:41:19;;;;;;;;;;;;;;;28.09;27.27;95507.38;5094193;28;1037;-57
2023/09/09 09:43:46;;;;;;;;;;;;;;;27.97;26.92;95515.00;5094583;28;1099;-57
2023/09/09 09:46:12;;;;;;;;;;;;;;;27.99;29.88;95502.63;5094077;28;1080;-57
2023/09/09 09:48:39;;;;;;;;;;;;;;;28.01;29.45;95497.69;5094193;28;1044;-57
2023/09/09 09:51:04;;;;;;;;;;;;;;;28.12;28.53;95497.78;5095461;28;1080;-58
2023/09/09 09:53:32;;;;;;;;;;;;;;;28.24;28.83;95496.47;5114811;28;1052;-56
2023/09/09 09:55:58;;;;;;;;;;;;;;;28.24;28.43;95493.72;5130638;27;2539;-56
2023/09/09 09:58:26;;;;;;;;;;;;;;;28.23;28.76;95496.78;5135092;27;1303;-56
2023/09/09 10:00:53;;;;;;;;;;;;;;;28.30;29.80;95486.34;5134850;27;1087;-58
2023/09/09 10:03:23;;;;;;;;;;;;;;;28.50;29.50;95485.66;5134807;27;1052;-58
2023/09/09 10:05:52;;;;;;;;;;;;;;;28.40;28.12;95485.59;5135362;27;1097;-56
2023/09/09 10:08:35;;;;;;;;;;;;;;;28.21;28.11;95486.03;5135029;27;1027;-57
2023/09/09 10:11:03;;;;;;;;;;;;;;;28.27;27.55;95483.28;5134781;27;1020;-58
2023/09/09 10:13:28;;;;;;;;;;;;;;;28.31;28.00;95481.69;5135095;27;1115;-58
2023/09/09 10:15:55;;;;;;;;;;;;;;;28.43;27.68;95479.56;5134525;27;1992;-58
2023/09/09 10:18:22;;;;;;;;;;;;;;;28.49;28.69;95464.75;5134894;27;989;-58
2023/09/09 10:20:49;;;;;;;;;;;;;;;28.56;29.02;95467.28;5134783;27;1054;-56
2023/09/09 10:23:16;;;;;;;;;;;;;;;28.61;28.67;95467.31;5134789;27;1052;-56
2023/09/09 10:25:42;;;;;;;;;;;;;;;28.45;27.40;95471.88;5133258;27;2474;-57
2023/09/09 10:28:10;;;;;;;;;;;;;;;28.38;28.37;95466.63;5134713;27;972;-57
2023/09/09 10:30:36;;;;;;;;;;;;;;;28.38;26.60;95458.38;5134798;27;963;-56
2023/09/09 10:33:04;;;;;;;;;;;;;;;28.53;26.93;95457.66;5134743;27;1002;-57
2023/09/09 10:35:30;;;;;;;;;;;;;;;28.53;27.40;95454.91;5133065;27;2481;-56
2023/09/09 10:37:57;;;;;;;;;;;;;;;28.51;26.63;95458.97;5134377;27;1059;-57
2023/09/09 10:40:25;;;;;;;;;;;;;;;28.57;27.03;95453.28;5134495;27;1014;-56
2023/09/09 10:42:51;;;;;;;;;;;;;;;28.57;27.57;95447.78;5134641;27;960;-56
2023/09/09 10:45:23;;;;;;;;;;;;;;;28.42;27.46;95456.75;5134553;27;965;-56
2023/09/09 10:47:55;;;;;;;;;;;;;;;28.30;25.61;95453.34;5134276;28;1076;-56
2023/09/09 10:50:21;;;;;;;;;;;;;;;28.52;25.07;95455.19;5134231;28;1039;-57
2023/09/09 10:52:50;;;;;;;;;;;;;;;28.65;24.38;95459.34;5134140;28;1084;-58
2023/09/09 10:55:18;;;;;;;;;;;;;;;28.67;24.42;95459.94;5134018;28;1914;-58
2023/09/09 10:57:55;;;;;;;;;;;;;;;28.75;24.96;95451.97;5132859;28;1255;-58
2023/09/09 11:00:35;;;;;;;;;;;;;;;28.83;25.84;95447.06;5113721;28;961;-58
2023/09/09 11:03:01;;;;;;;;;;;;;;;28.78;25.30;95450.63;5113625;28;1044;-58
2023/09/09 11:05:27;;;;;;;;;;;;;;;28.70;25.99;95445.63;5113410;28;1090;-58
2023/09/09 11:07:53;;;;;;;;;;;;;;;28.65;26.04;95438.19;5115339;28;961;-58
2023/09/09 11:10:21;;;;;;;;;;;;;;;28.54;25.62;95440.06;5098488;28;2609;-57
2023/09/09 11:12:56;;;;;;;;;;;;;;;28.50;26.37;95429.84;5116271;28;2519;-58
2023/09/09 11:15:25;;;;;;;;;;;;;;;28.53;26.07;95424.66;5117779;28;1975;-57
2023/09/09 11:17:51;;;;;;;;;;;;;;;28.60;26.77;95419.72;5117444;28;915;-58
2023/09/09 11:20:20;;;;;;;;;;;;;;;28.75;27.17;95418.13;5099240;28;1088;-58
2023/09/09 11:22:46;;;;;;;;;;;;;;;28.68;24.98;95417.56;5117381;28;1071;-57
2023/09/09 11:25:14;;;;;;;;;;;;;;;28.49;25.94;95415.25;5117618;28;1048;-58
2023/09/09 11:27:40;;;;;;;;;;;;;;;28.55;26.04;95411.47;5117256;28;1040;-57
2023/09/09 11:30:06;;;;;;;;;;;;;;;28.55;25.46;95414.22;5117511;28;1057;-57
2023/09/09 11:32:32;;;;;;;;;;;;;;;28.66;25.31;95414.25;5099359;28;1027;-58
2023/09/09 11:34:58;;;;;;;;;;;;;;;28.70;25.96;95407.09;5099276;28;1922;-58
2023/09/09 11:37:25;;;;;;;;;;;;;;;28.73;26.40;95398.31;5117032;28;1043;-57
2023/09/09 11:39:52;;;;;;;;;;;;;;;28.74;25.81;95405.47;5117291;28;974;-57
2023/09/09 11:42:18;;;;;;;;;;;;;;;28.74;26.32;95394.47;5117080;28;1022;-58
2023/09/09 11:44:46;;;;;;;;;;;;;;;28.80;25.05;95396.16;5116986;28;1057;-59
2023/09/09 11:47:13;;;;;;;;;;;;;;;28.69;26.30;95394.47;5116824;28;1020;-56
2023/09/09 11:49:41;;;;;;;;;;;;;;;28.70;25.72;95396.09;5097433;28;2484;-56
2023/09/09 11:52:07;;;;;;;;;;;;;;;28.79;26.23;95391.72;5106447;28;1219;-57
2023/09/09 11:54:34;;;;;;;;;;;;;;;28.80;26.32;95396.97;5098605;28;1048;-57
2023/09/09 11:57:06;;;;;;;;;;;;;;;28.71;25.84;95384.00;5131510;27;2553;-57
2023/09/09 11:59:42;;;;;;;;;;;;;;;28.81;25.67;95387.59;5140211;27;2288;-57
2023/09/09 12:02:16;;;;;;;;;;;;;;;28.94;25.82;95386.28;5136856;27;1128;-57
2023/09/09 12:04:51;;;;;;;;;;;;;;;28.89;25.95;95382.69;5137436;27;965;-57
2023/09/09 12:07:17;;;;;;;;;;;;;;;28.69;26.19;95384.28;5137040;27;1024;-56
2023/09/09 12:09:44;;;;;;;;;;;;;;;28.79;26.66;95377.97;5136203;27;2471;-57
2023/09/09 12:12:10;;;;;;;;;;;;;;;28.63;26.71;95379.88;5137330;27;997;-56
2023/09/09 12:14:36;;;;;;;;;;;;;;;28.56;26.44;95371.84;5137002;27;949;-57
2023/09/09 12:17:02;;;;;;;;;;;;;;;28.52;26.84;95368.00;5137075;27;1905;-57
2023/09/09 12:19:28;;;;;;;;;;;;;;;28.60;26.35;95381.22;5136716;27;999;-57
2023/09/09 12:21:55;;;;;;;;;;;;;;;28.67;24.49;95382.91;5137064;27;1018;-57
2023/09/09 12:24:21;;;;;;;;;;;;;;;28.73;25.42;95373.56;5136757;27;1107;-57
2023/09/09 12:26:52;;;;;;;;;;;;;;;28.66;25.29;95379.31;5137116;27;965;-57
2023/09/09 12:29:18;;;;;;;;;;;;;;;28.52;25.24;95372.66;5118351;27;1108;-56
2023/09/09 12:31:55;;;;;;;;;;;;;;;28.56;25.63;95365.53;5136668;27;1028;-56
2023/09/09 12:34:22;;;;;;;;;;;;;;;28.70;25.42;95363.09;5136861;27;1032;-57
2023/09/09 12:36:48;;;;;;;;;;;;;;;28.79;26.14;95361.47;5136822;27;1914;-57
2023/09/09 12:39:25;;;;;;;;;;;;;;;28.79;26.18;95350.47;5136460;27;1028;-57
2023/09/09 12:42:00;;;;;;;;;;;;;;;28.73;24.37;95357.06;5136362;27;1063;-56
2023/09/09 12:44:26;;;;;;;;;;;;;;;28.67;25.11;95367.22;5136548;27;1020;-56
2023/09/09 12:46:52;;;;;;;;;;;;;;;28.46;25.59;95357.19;5136648;27;1005;-57
2023/09/09 12:49:19;;;;;;;;;;;;;;;28.43;24.90;95356.63;5136380;27;1044;-57
2023/09/09 12:51:45;;;;;;;;;;;;;;;28.41;24.43;95356.09;5136313;27;1076;-57
2023/09/09 12:54:11;;;;;;;;;;;;;;;28.50;25.03;95350.91;5136102;27;1173;-57
2023/09/09 12:56:37;;;;;;;;;;;;;;;28.50;24.50;95358.34;5136120;27;1914;-57
2023/09/09 12:59:03;;;;;;;;;;;;;;;28.50;25.25;95353.66;5136257;27;1244;-57